sensor_id;sensor_type;location;lat;lon;timestamp;pressure;altitude;pressure_sealevel;temperature;humidity
28606;BME280;46498;49.968;7.754;2024-03-23T00:54:40;-18512.00;;;7.36;100.00
28606;BME280;46498;49.968;7.754;2024-03-23T00:59:41;-18513.00;;;7.39;100.00
28606;BME280;46498;49.968;7.754;2024-03-23T01:04:42;-18515.00;;;7.45;100.00
28606;BME280;46498;49.968;7.754;2024-03-23T01:09:42;-18510.00;;;7.30;100.00
28606;BME280;46498;49.968;7.754;2024-03-23T01:14:43;-18512.00;;;7.34;100.00
28606;BME280;46498;49.968;7.754;2024-03-23T01:19:44;-18511.00;;;7.32;100.00
28606;BME280;46498;49.968;7.754;2024-03-23T01:24:45;-18508.00;;;7.22;100.00
28606;BME280;46498;49.968;7.754;2024-03-23T01:29:46;-18506.00;;;7.17;100.00
28606;BME280;46498;49.968;7.754;2024-03-23T01:34:47;-18512.00;;;7.34;100.00
28606;BME280;46498;49.968;7.754;2024-03-23T01:39:48;-18517.00;;;7.50;100.00
28606;BME280;46498;49.968;7.754;2024-03-23T01:44:48;-18518.00;;;7.54;100.00
28606;BME280;46498;49.968;7.754;2024-03-23T01:49:49;-18522.00;;;7.66;100.00
28606;BME280;46498;49.968;7.754;2024-03-23T01:54:50;-18525.00;;;7.77;100.00
28606;BME280;46498;49.968;7.754;2024-03-23T01:59:51;-18527.00;;;7.83;100.00
28606;BME280;46498;49.968;7.754;2024-03-23T02:04:57;-18530.00;;;7.91;100.00
28606;BME280;46498;49.968;7.754;2024-03-23T02:09:58;-18533.00;;;8.02;100.00
28606;BME280;46498;49.968;7.754;2024-03-23T02:14:59;-18538.00;;;8.16;100.00
28606;BME280;46498;49.968;7.754;2024-03-23T02:20:02;-18543.00;;;8.34;100.00
28606;BME280;46498;49.968;7.754;2024-03-23T02:25:06;-18547.00;;;8.45;100.00
28606;BME280;46498;49.968;7.754;2024-03-23T02:30:08;-18550.00;;;8.56;100.00
28606;BME280;46498;49.968;7.754;2024-03-23T02:35:09;-18552.00;;;8.62;100.00
28606;BME280;46498;49.968;7.754;2024-03-23T02:40:10;-18551.00;;;8.57;100.00
28606;BME280;46498;49.968;7.754;2024-03-23T02:45:11;-18547.00;;;8.46;100.00
28606;BME280;46498;49.968;7.754;2024-03-23T02:50:12;-18546.00;;;8.42;100.00
28606;BME280;46498;49.968;7.754;2024-03-23T02:55:13;-18543.00;;;8.34;100.00
28606;BME280;46498;49.968;7.754;2024-03-23T03:00:14;-18541.00;;;8.26;100.00
28606;BME280;46498;49.968;7.754;2024-03-23T03:05:15;-18537.00;;;8.14;100.00
28606;BME280;46498;49.968;7.754;2024-03-23T03:10:16;-18534.00;;;8.04;100.00
28606;BME280;46498;49.968;7.754;2024-03-23T03:15:17;-18528.00;;;7.86;100.00
28606;BME280;46498;49.968;7.754;2024-03-23T03:20:18;-18527.00;;;7.83;100.00
28606;BME280;46498;49.968;7.754;2024-03-23T03:25:19;-18516.00;;;7.48;100.00
28606;BME280;46498;49.968;7.754;2024-03-23T03:30:20;-18505.00;;;7.14;100.00
28606;BME280;46498;49.968;7.754;2024-03-23T03:35:21;-18495.00;;;6.84;100.00
28606;BME280;46498;49.968;7.754;2024-03-23T03:40:22;-18484.00;;;6.49;100.00
28606;BME280;46498;49.968;7.754;2024-03-23T03:45:23;-18479.00;;;6.31;100.00
28606;BME280;46498;49.968;7.754;2024-03-23T03:50:24;-18472.00;;;6.11;100.00
28606;BME280;46498;49.968;7.754;2024-03-23T03:55:25;-18466.00;;;5.91;100.00
28606;BME280;46498;49.968;7.754;2024-03-23T04:00:27;-18460.00;;;5.72;100.00
28606;BME280;46498;49.968;7.754;2024-03-23T04:05:27;-18455.00;;;5.58;100.00
28606;BME280;46498;49.968;7.754;2024-03-23T04:10:28;-18454.00;;;5.52;100.00
28606;BME280;46498;49.968;7.754;2024-03-23T04:15:30;-18450.00;;;5.40;100.00
28606;BME280;46498;49.968;7.754;2024-03-23T04:20:31;-18445.00;;;5.24;100.00
28606;BME280;46498;49.968;7.754;2024-03-23T04:25:33;-18439.00;;;5.07;100.00
28606;BME280;46498;49.968;7.754;2024-03-23T04:30:34;-18434.00;;;4.91;100.00
28606;BME280;46498;49.968;7.754;2024-03-23T04:35:34;-18434.00;;;4.90;100.00
28606;BME280;46498;49.968;7.754;2024-03-23T04:40:35;-18431.00;;;4.82;100.00
28606;BME280;46498;49.968;7.754;2024-03-23T04:45:36;-18430.00;;;4.79;100.00
28606;BME280;46498;49.968;7.754;2024-03-23T04:50:37;-18432.00;;;4.85;100.00
28606;BME280;46498;49.968;7.754;2024-03-23T04:55:38;-18433.00;;;4.88;100.00
28606;BME280;46498;49.968;7.754;2024-03-23T05:00:39;-18433.00;;;4.87;100.00
28606;BME280;46498;49.968;7.754;2024-03-23T05:05:40;-18427.00;;;4.68;100.00
28606;BME280;46498;49.968;7.754;2024-03-23T05:10:41;-18423.00;;;4.57;100.00
28606;BME280;46498;49.968;7.754;2024-03-23T05:15:42;-18421.00;;;4.51;100.00
28606;BME280;46498;49.968;7.754;2024-03-23T05:20:43;-18420.00;;;4.46;100.00
28606;BME280;46498;49.968;7.754;2024-03-23T05:25:44;-18417.00;;;4.37;100.00
28606;BME280;46498;49.968;7.754;2024-03-23T05:30:53;-18413.00;;;4.25;100.00
28606;BME280;46498;49.968;7.754;2024-03-23T05:35:59;-18412.00;;;4.20;100.00
28606;BME280;46498;49.968;7.754;2024-03-23T05:41:01;-18409.00;;;4.11;100.00
28606;BME280;46498;49.968;7.754;2024-03-23T05:46:03;-18410.00;;;4.15;100.00
28606;BME280;46498;49.968;7.754;2024-03-23T05:51:05;-18408.00;;;4.09;100.00
28606;BME280;46498;49.968;7.754;2024-03-23T05:56:06;-18405.00;;;4.01;100.00
28606;BME280;46498;49.968;7.754;2024-03-23T06:01:07;-18402.00;;;3.91;100.00
28606;BME280;46498;49.968;7.754;2024-03-23T06:06:08;-18399.00;;;3.80;100.00
28606;BME280;46498;49.968;7.754;2024-03-23T06:11:12;-18392.00;;;3.59;100.00
28606;BME280;46498;49.968;7.754;2024-03-23T06:16:13;-18392.00;;;3.60;100.00
28606;BME280;46498;49.968;7.754;2024-03-23T06:21:14;-18392.00;;;3.60;100.00
28606;BME280;46498;49.968;7.754;2024-03-23T06:26:14;-18389.00;;;3.51;100.00
28606;BME280;46498;49.968;7.754;2024-03-23T06:31:15;-18390.00;;;3.53;100.00
28606;BME280;46498;49.968;7.754;2024-03-23T06:36:16;-18393.00;;;3.63;100.00
28606;BME280;46498;49.968;7.754;2024-03-23T06:41:19;-18401.00;;;3.88;100.00
28606;BME280;46498;49.968;7.754;2024-03-23T06:46:20;-18399.00;;;3.80;100.00
28606;BME280;46498;49.968;7.754;2024-03-23T06:51:21;-18401.00;;;3.88;100.00
28606;BME280;46498;49.968;7.754;2024-03-23T06:56:22;-18399.00;;;3.81;100.00
28606;BME280;46498;49.968;7.754;2024-03-23T07:01:23;-18396.00;;;3.72;100.00
28606;BME280;46498;49.968;7.754;2024-03-23T07:06:24;-18396.00;;;3.71;100.00
28606;BME280;46498;49.968;7.754;2024-03-23T07:11:25;-18398.00;;;3.78;100.00
28606;BME280;46498;49.968;7.754;2024-03-23T07:16:27;-18402.00;;;3.90;100.00
28606;BME280;46498;49.968;7.754;2024-03-23T07:21:30;-18406.00;;;4.04;100.00
28606;BME280;46498;49.968;7.754;2024-03-23T07:26:30;-18410.00;;;4.17;100.00
28606;BME280;46498;49.968;7.754;2024-03-23T07:31:32;-18421.00;;;4.51;100.00
28606;BME280;46498;49.968;7.754;2024-03-23T07:36:33;-18425.00;;;4.63;100.00
28606;BME280;46498;49.968;7.754;2024-03-23T07:41:34;-18436.00;;;4.99;100.00
28606;BME280;46498;49.968;7.754;2024-03-23T07:46:36;-18443.00;;;5.18;100.00
28606;BME280;46498;49.968;7.754;2024-03-23T07:51:37;-18449.00;;;5.38;100.00
28606;BME280;46498;49.968;7.754;2024-03-23T07:56:40;-18454.00;;;5.54;100.00
28606;BME280;46498;49.968;7.754;2024-03-23T08:01:41;-18448.00;;;5.34;100.00
28606;BME280;46498;49.968;7.754;2024-03-23T08:06:42;-18450.00;;;5.41;100.00
28606;BME280;46498;49.968;7.754;2024-03-23T08:11:47;-18439.00;;;5.08;100.00
28606;BME280;46498;49.968;7.754;2024-03-23T08:16:48;-18450.00;;;5.42;100.00
28606;BME280;46498;49.968;7.754;2024-03-23T08:21:50;-18457.00;;;5.62;100.00
28606;BME280;46498;49.968;7.754;2024-03-23T08:26:54;-18454.00;;;5.53;100.00
28606;BME280;46498;49.968;7.754;2024-03-23T08:31:57;-18463.00;;;5.80;100.00
28606;BME280;46498;49.968;7.754;2024-03-23T08:36:58;-18468.00;;;5.98;100.00
28606;BME280;46498;49.968;7.754;2024-03-23T08:41:59;-18477.00;;;6.24;100.00
28606;BME280;46498;49.968;7.754;2024-03-23T08:47:01;-18494.00;;;6.78;100.00
28606;BME280;46498;49.968;7.754;2024-03-23T08:52:02;-18487.00;;;6.56;100.00
28606;BME280;46498;49.968;7.754;2024-03-23T08:57:03;-18486.00;;;6.55;100.00
28606;BME280;46498;49.968;7.754;2024-03-23T09:02:05;-18480.00;;;6.36;100.00
28606;BME280;46498;49.968;7.754;2024-03-23T09:07:06;-18483.00;;;6.44;100.00
28606;BME280;46498;49.968;7.754;2024-03-23T09:12:07;-18484.00;;;6.47;100.00
28606;BME280;46498;49.968;7.754;2024-03-23T09:17:08;-18493.00;;;6.76;100.00
28606;BME280;46498;49.968;7.754;2024-03-23T09:22:10;-18492.00;;;6.71;100.00
28606;BME280;46498;49.968;7.754;2024-03-23T09:27:11;-18505.00;;;7.13;100.00
28606;BME280;46498;49.968;7.754;2024-03-23T09:32:12;-18499.00;;;6.93;100.00
28606;BME280;46498;49.968;7.754;2024-03-23T09:37:13;-18492.00;;;6.72;100.00
28606;BME280;46498;49.968;7.754;2024-03-23T09:42:14;-18491.00;;;6.70;100.00
28606;BME280;46498;49.968;7.754;2024-03-23T09:47:15;-18496.00;;;6.86;100.00
28606;BME280;46498;49.968;7.754;2024-03-23T09:52:16;-18494.00;;;6.80;100.00
28606;BME280;46498;49.968;7.754;2024-03-23T09:57:17;-18430.00;;;4.80;100.00
28606;BME280;46498;49.968;7.754;2024-03-23T10:02:18;-18406.00;;;4.04;100.00
28606;BME280;46498;49.968;7.754;2024-03-23T10:07:21;-18390.00;;;3.53;100.00
28606;BME280;46498;49.968;7.754;2024-03-23T10:12:24;-18377.00;;;3.13;100.00
28606;BME280;46498;49.968;7.754;2024-03-23T10:17:25;-18373.00;;;2.99;100.00
28606;BME280;46498;49.968;7.754;2024-03-23T10:22:26;-18370.00;;;2.90;100.00
28606;BME280;46498;49.968;7.754;2024-03-23T10:27:27;-18366.00;;;2.76;100.00
28606;BME280;46498;49.968;7.754;2024-03-23T10:32:28;-18356.00;;;2.47;100.00
28606;BME280;46498;49.968;7.754;2024-03-23T10:37:30;-18355.00;;;2.42;100.00
28606;BME280;46498;49.968;7.754;2024-03-23T10:42:33;-18360.00;;;2.59;100.00
28606;BME280;46498;49.968;7.754;2024-03-23T10:47:35;-18371.00;;;2.93;100.00
28606;BME280;46498;49.968;7.754;2024-03-23T10:52:36;-18412.00;;;4.23;100.00
28606;BME280;46498;49.968;7.754;2024-03-23T10:57:44;-18460.00;;;5.73;100.00
28606;BME280;46498;49.968;7.754;2024-03-23T11:02:48;-18488.00;;;6.60;100.00
28606;BME280;46498;49.968;7.754;2024-03-23T11:07:52;-18529.00;;;7.89;100.00
28606;BME280;46498;49.968;7.754;2024-03-23T11:12:54;-18539.00;;;8.21;100.00
28606;BME280;46498;49.968;7.754;2024-03-23T11:18:07;-18557.00;;;8.75;100.00
28606;BME280;46498;49.968;7.754;2024-03-23T11:23:26;-18549.00;;;8.51;100.00
28606;BME280;46498;49.968;7.754;2024-03-23T11:28:28;-18536.00;;;8.10;100.00
28606;BME280;46498;49.968;7.754;2024-03-23T11:33:28;-18552.00;;;8.62;100.00
28606;BME280;46498;49.968;7.754;2024-03-23T11:38:36;-18556.00;;;8.75;100.00
28606;BME280;46498;49.968;7.754;2024-03-23T11:43:37;-18574.00;;;9.30;100.00
28606;BME280;46498;49.968;7.754;2024-03-23T11:48:37;-18576.00;;;9.37;88.99
28606;BME280;46498;49.968;7.754;2024-03-23T11:53:39;-18574.00;;;9.29;87.29
28606;BME280;46498;49.968;7.754;2024-03-23T11:58:41;-18565.00;;;9.01;84.67
28606;BME280;46498;49.968;7.754;2024-03-23T12:03:44;-18571.00;;;9.21;82.25
28606;BME280;46498;49.968;7.754;2024-03-23T12:08:45;-18561.00;;;8.88;79.45
28606;BME280;46498;49.968;7.754;2024-03-23T12:13:46;-18534.00;;;8.05;85.52
28606;BME280;46498;49.968;7.754;2024-03-23T12:18:49;-18438.00;;;5.04;100.00
28606;BME280;46498;49.968;7.754;2024-03-23T12:23:51;-18393.00;;;3.63;100.00
28606;BME280;46498;49.968;7.754;2024-03-23T12:28:52;-18385.00;;;3.36;100.00
28606;BME280;46498;49.968;7.754;2024-03-23T12:33:56;-18415.00;;;4.32;100.00
28606;BME280;46498;49.968;7.754;2024-03-23T12:38:57;-18447.00;;;5.32;100.00
28606;BME280;46498;49.968;7.754;2024-03-23T12:43:58;-18467.00;;;5.95;100.00
28606;BME280;46498;49.968;7.754;2024-03-23T12:48:59;-18481.00;;;6.39;100.00
28606;BME280;46498;49.968;7.754;2024-03-23T12:54:01;-18494.00;;;6.79;100.00
28606;BME280;46498;49.968;7.754;2024-03-23T12:59:02;-18516.00;;;7.47;100.00
28606;BME280;46498;49.968;7.754;2024-03-23T13:04:04;-18527.00;;;7.82;100.00
28606;BME280;46498;49.968;7.754;2024-03-23T13:09:04;-18531.00;;;7.94;100.00
28606;BME280;46498;49.968;7.754;2024-03-23T13:14:06;-18529.00;;;7.89;100.00
28606;BME280;46498;49.968;7.754;2024-03-23T13:19:07;-18518.00;;;7.55;100.00
28606;BME280;46498;49.968;7.754;2024-03-23T13:24:08;-18513.00;;;7.38;100.00
28606;BME280;46498;49.968;7.754;2024-03-23T13:29:10;-18516.00;;;7.49;100.00
28606;BME280;46498;49.968;7.754;2024-03-23T13:34:11;-18530.00;;;7.91;100.00
28606;BME280;46498;49.968;7.754;2024-03-23T13:39:12;-18538.00;;;8.18;100.00
28606;BME280;46498;49.968;7.754;2024-03-23T13:44:14;-18554.00;;;8.66;100.00
28606;BME280;46498;49.968;7.754;2024-03-23T13:49:29;-18582.00;;;9.54;100.00
28606;BME280;46498;49.968;7.754;2024-03-23T13:54:31;-18583.00;;;9.60;82.32
28606;BME280;46498;49.968;7.754;2024-03-23T13:59:32;-18579.00;;;9.47;84.30
28606;BME280;46498;49.968;7.754;2024-03-23T14:04:33;-18562.00;;;8.92;62.02
28606;BME280;46498;49.968;7.754;2024-03-23T14:09:34;-18553.00;;;8.65;74.76
28606;BME280;46498;49.968;7.754;2024-03-23T14:14:35;-18533.00;;;8.01;78.50
28606;BME280;46498;49.968;7.754;2024-03-23T14:19:37;-18550.00;;;8.54;81.95
28606;BME280;46498;49.968;7.754;2024-03-23T14:24:38;-18547.00;;;8.46;66.31
28606;BME280;46498;49.968;7.754;2024-03-23T14:29:39;-18535.00;;;8.06;64.01
28606;BME280;46498;49.968;7.754;2024-03-23T14:34:41;-18507.00;;;7.19;69.42
28606;BME280;46498;49.968;7.754;2024-03-23T14:39:42;-18494.00;;;6.80;74.00
28606;BME280;46498;49.968;7.754;2024-03-23T14:44:45;-18495.00;;;6.83;79.57
28606;BME280;46498;49.968;7.754;2024-03-23T14:49:45;-18489.00;;;6.64;72.55
28606;BME280;46498;49.968;7.754;2024-03-23T14:54:47;-18476.00;;;6.22;75.44
28606;BME280;46498;49.968;7.754;2024-03-23T14:59:51;-18445.00;;;5.26;100.00
28606;BME280;46498;49.968;7.754;2024-03-23T15:04:53;-18421.00;;;4.50;100.00
28606;BME280;46498;49.968;7.754;2024-03-23T15:09:55;-18422.00;;;4.53;100.00
28606;BME280;46498;49.968;7.754;2024-03-23T15:14:56;-18445.00;;;5.26;100.00
28606;BME280;46498;49.968;7.754;2024-03-23T15:19:57;-18462.00;;;5.77;100.00
28606;BME280;46498;49.968;7.754;2024-03-23T15:24:58;-18463.00;;;5.80;100.00
28606;BME280;46498;49.968;7.754;2024-03-23T15:29:58;-18469.00;;;5.99;100.00
28606;BME280;46498;49.968;7.754;2024-03-23T15:34:59;-18461.00;;;5.74;100.00
28606;BME280;46498;49.968;7.754;2024-03-23T15:40:00;-18452.00;;;5.48;100.00
28606;BME280;46498;49.968;7.754;2024-03-23T15:45:01;-18445.00;;;5.25;100.00
28606;BME280;46498;49.968;7.754;2024-03-23T15:50:08;-18444.00;;;5.21;100.00
28606;BME280;46498;49.968;7.754;2024-03-23T15:55:09;-18443.00;;;5.20;100.00
28606;BME280;46498;49.968;7.754;2024-03-23T16:00:12;-18436.00;;;4.96;100.00
28606;BME280;46498;49.968;7.754;2024-03-23T16:05:14;-18440.00;;;5.09;100.00
28606;BME280;46498;49.968;7.754;2024-03-23T16:10:15;-18446.00;;;5.28;100.00
28606;BME280;46498;49.968;7.754;2024-03-23T16:15:16;-18445.00;;;5.25;100.00
28606;BME280;46498;49.968;7.754;2024-03-23T16:20:17;-18440.00;;;5.10;100.00
28606;BME280;46498;49.968;7.754;2024-03-23T16:25:18;-18440.00;;;5.09;100.00
28606;BME280;46498;49.968;7.754;2024-03-23T16:30:20;-18441.00;;;5.13;100.00
28606;BME280;46498;49.968;7.754;2024-03-23T16:35:21;-18439.00;;;5.05;100.00
28606;BME280;46498;49.968;7.754;2024-03-23T16:40:22;-18440.00;;;5.08;100.00
28606;BME280;46498;49.968;7.754;2024-03-23T16:45:25;-18437.00;;;5.00;100.00
28606;BME280;46498;49.968;7.754;2024-03-23T16:50:26;-18437.00;;;5.00;100.00
28606;BME280;46498;49.968;7.754;2024-03-23T16:55:26;-18430.00;;;4.77;100.00
28606;BME280;46498;49.968;7.754;2024-03-23T17:00:27;-18427.00;;;4.69;100.00
28606;BME280;46498;49.968;7.754;2024-03-23T17:05:28;-18421.00;;;4.51;100.00
28606;BME280;46498;49.968;7.754;2024-03-23T17:10:29;-18419.00;;;4.44;100.00
28606;BME280;46498;49.968;7.754;2024-03-23T17:15:30;-18418.00;;;4.42;100.00
28606;BME280;46498;49.968;7.754;2024-03-23T17:20:31;-18414.00;;;4.28;100.00
28606;BME280;46498;49.968;7.754;2024-03-23T17:25:32;-18411.00;;;4.20;100.00
28606;BME280;46498;49.968;7.754;2024-03-23T17:30:33;-18406.00;;;4.03;100.00
28606;BME280;46498;49.968;7.754;2024-03-23T17:35:34;-18405.00;;;3.98;100.00
28606;BME280;46498;49.968;7.754;2024-03-23T17:40:35;-18405.00;;;4.01;100.00
28606;BME280;46498;49.968;7.754;2024-03-23T17:45:36;-18407.00;;;4.06;100.00
28606;BME280;46498;49.968;7.754;2024-03-23T17:50:37;-18406.00;;;4.03;100.00
28606;BME280;46498;49.968;7.754;2024-03-23T17:55:38;-18407.00;;;4.08;100.00
28606;BME280;46498;49.968;7.754;2024-03-23T18:00:39;-18408.00;;;4.08;100.00
28606;BME280;46498;49.968;7.754;2024-03-23T18:05:40;-18401.00;;;3.87;100.00
28606;BME280;46498;49.968;7.754;2024-03-23T18:10:41;-18397.00;;;3.76;100.00
28606;BME280;46498;49.968;7.754;2024-03-23T18:15:42;-18398.00;;;3.79;100.00
28606;BME280;46498;49.968;7.754;2024-03-23T18:20:43;-18396.00;;;3.72;100.00
28606;BME280;46498;49.968;7.754;2024-03-23T18:25:51;-18370.00;;;2.90;100.00
28606;BME280;46498;49.968;7.754;2024-03-23T18:30:56;-18363.00;;;2.70;100.00
28606;BME280;46498;49.968;7.754;2024-03-23T18:35:58;-18366.00;;;2.79;100.00
28606;BME280;46498;49.968;7.754;2024-03-23T18:41:00;-18366.00;;;2.78;100.00
28606;BME280;46498;49.968;7.754;2024-03-23T18:46:02;-18366.00;;;2.78;100.00
28606;BME280;46498;49.968;7.754;2024-03-23T18:51:03;-18364.00;;;2.71;100.00
28606;BME280;46498;49.968;7.754;2024-03-23T18:56:04;-18360.00;;;2.59;100.00
28606;BME280;46498;49.968;7.754;2024-03-23T19:01:06;-18358.00;;;2.52;100.00
28606;BME280;46498;49.968;7.754;2024-03-23T19:06:07;-18356.00;;;2.46;100.00
28606;BME280;46498;49.968;7.754;2024-03-23T19:11:08;-18352.00;;;2.34;100.00
28606;BME280;46498;49.968;7.754;2024-03-23T19:16:09;-18345.00;;;2.10;100.00
28606;BME280;46498;49.968;7.754;2024-03-23T19:21:10;-18344.00;;;2.09;100.00
28606;BME280;46498;49.968;7.754;2024-03-23T19:26:15;-18346.00;;;2.17;100.00
28606;BME280;46498;49.968;7.754;2024-03-23T19:31:15;-18352.00;;;2.35;100.00
28606;BME280;46498;49.968;7.754;2024-03-23T19:36:17;-18350.00;;;2.29;100.00
28606;BME280;46498;49.968;7.754;2024-03-23T19:41:18;-18347.00;;;2.18;100.00
28606;BME280;46498;49.968;7.754;2024-03-23T19:46:19;-18345.00;;;2.12;100.00
28606;BME280;46498;49.968;7.754;2024-03-23T19:51:19;-18343.00;;;2.06;100.00
28606;BME280;46498;49.968;7.754;2024-03-23T19:56:20;-18337.00;;;1.87;100.00
28606;BME280;46498;49.968;7.754;2024-03-23T20:01:21;-18336.00;;;1.84;100.00
28606;BME280;46498;49.968;7.754;2024-03-23T20:06:22;-18336.00;;;1.85;100.00
28606;BME280;46498;49.968;7.754;2024-03-23T20:11:26;-18341.00;;;2.00;100.00
28606;BME280;46498;49.968;7.754;2024-03-23T20:16:27;-18342.00;;;2.04;100.00
28606;BME280;46498;49.968;7.754;2024-03-23T20:21:28;-18349.00;;;2.23;100.00
28606;BME280;46498;49.968;7.754;2024-03-23T20:26:29;-18347.00;;;2.19;100.00
28606;BME280;46498;49.968;7.754;2024-03-23T20:31:29;-18346.00;;;2.14;100.00
28606;BME280;46498;49.968;7.754;2024-03-23T20:36:31;-18346.00;;;2.17;100.00
28606;BME280;46498;49.968;7.754;2024-03-23T20:41:32;-18346.00;;;2.15;100.00
28606;BME280;46498;49.968;7.754;2024-03-23T20:46:33;-18345.00;;;2.11;100.00
28606;BME280;46498;49.968;7.754;2024-03-23T20:51:34;-18347.00;;;2.18;100.00
28606;BME280;46498;49.968;7.754;2024-03-23T20:56:35;-18350.00;;;2.26;100.00
28606;BME280;46498;49.968;7.754;2024-03-23T21:01:36;-18344.00;;;2.07;100.00
28606;BME280;46498;49.968;7.754;2024-03-23T21:06:37;-18341.00;;;1.99;100.00
28606;BME280;46498;49.968;7.754;2024-03-23T21:11:39;-18342.00;;;2.01;100.00
28606;BME280;46498;49.968;7.754;2024-03-23T21:16:40;-18343.00;;;2.05;100.00
28606;BME280;46498;49.968;7.754;2024-03-23T21:21:42;-18346.00;;;2.15;100.00
28606;BME280;46498;49.968;7.754;2024-03-23T21:26:43;-18342.00;;;2.03;100.00
28606;BME280;46498;49.968;7.754;2024-03-23T21:31:44;-18346.00;;;2.14;100.00
28606;BME280;46498;49.968;7.754;2024-03-23T21:36:45;-18341.00;;;1.99;100.00
28606;BME280;46498;49.968;7.754;2024-03-23T21:41:46;-18347.00;;;2.18;100.00
28606;BME280;46498;49.968;7.754;2024-03-23T21:46:48;-18348.00;;;2.20;100.00
28606;BME280;46498;49.968;7.754;2024-03-23T21:51:48;-18339.00;;;1.93;100.00
28606;BME280;46498;49.968;7.754;2024-03-23T21:56:49;-18338.00;;;1.90;100.00
28606;BME280;46498;49.968;7.754;2024-03-23T22:01:50;-18340.00;;;1.98;100.00
28606;BME280;46498;49.968;7.754;2024-03-23T22:06:51;-18341.00;;;2.01;100.00
28606;BME280;46498;49.968;7.754;2024-03-23T22:11:52;-18339.00;;;1.93;100.00
28606;BME280;46498;49.968;7.754;2024-03-23T22:16:53;-18334.00;;;1.77;100.00
28606;BME280;46498;49.968;7.754;2024-03-23T22:21:54;-18340.00;;;1.97;100.00
28606;BME280;46498;49.968;7.754;2024-03-23T22:26:55;-18342.00;;;2.03;100.00
28606;BME280;46498;49.968;7.754;2024-03-23T22:31:55;-18346.00;;;2.14;100.00
28606;BME280;46498;49.968;7.754;2024-03-23T22:36:57;-18350.00;;;2.26;100.00
28606;BME280;46498;49.968;7.754;2024-03-23T22:41:58;-18354.00;;;2.40;100.00
28606;BME280;46498;49.968;7.754;2024-03-23T22:46:59;-18353.00;;;2.36;100.00
28606;BME280;46498;49.968;7.754;2024-03-23T22:52:01;-18355.00;;;2.42;100.00
28606;BME280;46498;49.968;7.754;2024-03-23T22:57:02;-18358.00;;;2.53;100.00
28606;BME280;46498;49.968;7.754;2024-03-23T23:02:03;-18357.00;;;2.51;100.00
28606;BME280;46498;49.968;7.754;2024-03-23T23:07:04;-18357.00;;;2.49;100.00
28606;BME280;46498;49.968;7.754;2024-03-23T23:12:06;-18353.00;;;2.36;100.00
28606;BME280;46498;49.968;7.754;2024-03-23T23:17:06;-18358.00;;;2.53;100.00
28606;BME280;46498;49.968;7.754;2024-03-23T23:22:07;-18362.00;;;2.66;100.00
28606;BME280;46498;49.968;7.754;2024-03-23T23:27:08;-18366.00;;;2.79;100.00
28606;BME280;46498;49.968;7.754;2024-03-23T23:32:09;-18363.00;;;2.68;100.00
28606;BME280;46498;49.968;7.754;2024-03-23T23:37:10;-18363.00;;;2.70;100.00
28606;BME280;46498;49.968;7.754;2024-03-23T23:42:11;-18367.00;;;2.82;100.00
28606;BME280;46498;49.968;7.754;2024-03-23T23:47:12;-18370.00;;;2.89;100.00
28606;BME280;46498;49.968;7.754;2024-03-23T23:52:13;-18364.00;;;2.70;100.00
28606;BME280;46498;49.968;7.754;2024-03-23T23:57:14;-18362.00;;;2.66;100.00
